WetterOnline ( https://www.wetteronline.de )

Wetter aktuell March

Aktuelles Wetter: Freiburg/Flugplatz (236m)

6-stündlich | Neueste Meldungen
Ortszeit Temperatur Wetter
Mo, 30.01. 7:00 0.3° C wolkig
Mo, 30.01. 1:00 -3.4° C fast wolkenlos
So, 29.01. 19:00 -0.8° C bewölkt
So, 29.01. 13:00 2.4° C wolkig
So, 29.01. 7:00 -0.7° C bedeckt
So, 29.01. 1:00 0.7° C bedeckt
Sa, 28.01. 19:00 2.6° C bedeckt
Sa, 28.01. 13:00 3.7° C bewölkt
Ortszeit Temperatur Wetter
Mo, 30.01. 8:30 0.6° C leicht bewölkt
Mo, 30.01. 8:20 0.6° C leicht bewölkt
Mo, 30.01. 8:10 0.5° C wolkig
Mo, 30.01. 8:00 0.7° C bedeckt
Mo, 30.01. 7:50 0.7° C bedeckt
Mo, 30.01. 7:40 0.8° C bedeckt
Mo, 30.01. 7:30 0.6° C bewölkt
Mo, 30.01. 7:00 0.3° C wolkig
Mo, 30.01. 6:30 0.7° C bewölkt
Mo, 30.01. 6:00 0.4° C wolkig
Mo, 30.01. 5:30 0.2° C wolkenlos
Ortszeit Relative Feuchte Sichtweite
Mo, 30.01. 7:00 73% 35 km
Mo, 30.01. 1:00 88% 24 km
So, 29.01. 19:00 81% 26 km
So, 29.01. 13:00 60% 55 km
So, 29.01. 7:00 84% 26 km
So, 29.01. 1:00 84% 28 km
Sa, 28.01. 19:00 73% 35 km
Sa, 28.01. 13:00 59% 60 km
Ortszeit Relative Feuchte Sichtweite
Mo, 30.01. 8:30 69% 35 km
Mo, 30.01. 8:20 69% -
Mo, 30.01. 8:10 70% -
Mo, 30.01. 8:00 70% 35 km
Mo, 30.01. 7:50 70% -
Mo, 30.01. 7:40 70% -
Mo, 30.01. 7:30 71% 35 km
Mo, 30.01. 7:00 73% 35 km
Mo, 30.01. 6:30 71% 35 km
Mo, 30.01. 6:00 72% 40 km
Mo, 30.01. 5:30 71% 40 km
Ortszeit Niederschlagsmenge Niederschlagsart
Mo, 30.01. 7:00 0.0 l/m2 in 12 Std. -
Mo, 30.01. 1:00 0.0 l/m2 in 6 Std. -
So, 29.01. 19:00 0.0 l/m2 in 12 Std. -
So, 29.01. 13:00 0.0 l/m2 in 6 Std. -
So, 29.01. 7:00 0.0 l/m2 in 12 Std. -
So, 29.01. 1:00 0.0 l/m2 in 6 Std. -
Sa, 28.01. 19:00 0.1 l/m2 in 12 Std. -
Sa, 28.01. 13:00 0.1 l/m2 in 6 Std. Schnee, Sprühregen
Ortszeit Niederschlagsmenge Niederschlagsart
Mo, 30.01. 8:30 0.0 l/m2 in 30 Min -
Mo, 30.01. 8:20 keine Meldung -
Mo, 30.01. 8:10 keine Meldung -
Mo, 30.01. 8:00 0.0 l/m2 in 1 Std. -
Mo, 30.01. 7:50 keine Meldung -
Mo, 30.01. 7:40 keine Meldung -
Mo, 30.01. 7:30 0.0 l/m2 in 30 Min -
Mo, 30.01. 7:00 0.0 l/m2 in 1 Std. -
Mo, 30.01. 6:30 0.0 l/m2 in 30 Min -
Mo, 30.01. 6:00 0.0 l/m2 in 1 Std. -
Mo, 30.01. 5:30 0.0 l/m2 in 30 Min -
Ortszeit Stärke Spitze Richtung
km/h Bft. km/h Grad Sektor
Mo, 30.01. 7:00 18 3 36 210° SW
Mo, 30.01. 1:00 4 1 18 270° W
So, 29.01. 19:00 4 1 18 250° W
So, 29.01. 13:00 7 2 14 230° SW
So, 29.01. 7:00 4 1 22 70° O
So, 29.01. 1:00 11 2 18 320° NW
Sa, 28.01. 19:00 7 2 31 360° N
Sa, 28.01. 13:00 11 2 22 30° NO
Ortszeit Stärke Spitze Richtung
km/h Bft. km/h Grad Sektor
Mo, 30.01. 8:30 22 4 35 200° S
Mo, 30.01. 8:20 22 4 - 200° S
Mo, 30.01. 8:10 24 4 - 200° S
Mo, 30.01. 8:00 19 3 35 210° SW
Mo, 30.01. 7:50 19 3 - 210° SW
Mo, 30.01. 7:40 20 4 - 200° S
Mo, 30.01. 7:30 24 4 35 210° SW
Mo, 30.01. 7:00 18 3 36 210° SW
Mo, 30.01. 6:30 22 4 36 210° SW
Mo, 30.01. 6:00 18 3 36 210° SW
Mo, 30.01. 5:30 18 3 32 200° S
Ortszeit Untergrenze Bedeckung Gattung
total tief tief mittel hoch
Mo, 30.01. 7:00 1380 m 8/8 1/8 - - -
Mo, 30.01. 1:00 10500 m 1/8 0/8 - - -
So, 29.01. 19:00 5700 m 8/8 7/8 - - -
So, 29.01. 13:00 780 m 8/8 2/8 - - -
So, 29.01. 7:00 900 m 8/8 8/8 - - -
So, 29.01. 1:00 900 m 8/8 8/8 - - -
Sa, 28.01. 19:00 990 m 8/8 8/8 - - -
Sa, 28.01. 13:00 990 m 7/8 7/8 - - -
Ortszeit Bedeckungsgrad in Achtel und Wolkenuntergrenze
Mo, 30.01. 8:30 3(1470m)
Mo, 30.01. 8:20 3(1470m)
Mo, 30.01. 8:10 5
Mo, 30.01. 8:00 6(960m) 7(1200m) 8(1410m)
Mo, 30.01. 7:50 6(960m) 7(1200m) 8(1410m)
Mo, 30.01. 7:40 8
Mo, 30.01. 7:30 7(1200m) 8(9000m)
Mo, 30.01. 7:00 1(1380m) 8(9000m)
Mo, 30.01. 6:30 7(3600m) 7(9000m)
Mo, 30.01. 6:00 6(3600m)
Mo, 30.01. 5:30 keine Wolken
Ortszeit Luftdruck NN (hPa) Tendenz (hPa in 3 Std.)
Mo, 30.01. 7:00 1027 - 0,5
Mo, 30.01. 1:00 1028 - 1,0
So, 29.01. 19:00 1029 + 0,2
So, 29.01. 13:00 1030 - 0,9
So, 29.01. 7:00 1030 + 0,3
So, 29.01. 1:00 1029 + 0,3
Sa, 28.01. 19:00 1028 + 1,5
Sa, 28.01. 13:00 1026 - 0,2
Ortszeit Luftdruck NN (hPa) Tendenz (hPa in 3 Std.)
Mo, 30.01. 8:30 1027 - 0,2
Mo, 30.01. 8:20 1027 keine Meldung
Mo, 30.01. 8:10 1027 keine Meldung
Mo, 30.01. 8:00 1027 + 0,1
Mo, 30.01. 7:50 1027 keine Meldung
Mo, 30.01. 7:40 1027 keine Meldung
Mo, 30.01. 7:30 1027 - 0,4
Mo, 30.01. 7:00 1027 - 0,5
Mo, 30.01. 6:30 1027 - 0,6
Mo, 30.01. 6:00 1027 - 0,6
Mo, 30.01. 5:30 1027 + 0,3
Ortszeit Schneehöhe (cm)
Mo, 30.01. 7:00 0
Mo, 30.01. 1:00 0
So, 29.01. 19:00 0
So, 29.01. 13:00 0
So, 29.01. 7:00 0
So, 29.01. 1:00 0
Sa, 28.01. 19:00 0
Sa, 28.01. 13:00 0
Ortszeit Schneehöhe (cm)
Mo, 30.01. 8:30 0
Mo, 30.01. 8:20 0
Mo, 30.01. 8:10 0
Mo, 30.01. 8:00 0
Mo, 30.01. 7:50 0
Mo, 30.01. 7:40 0
Mo, 30.01. 7:30 0
Mo, 30.01. 7:00 0
Mo, 30.01. 6:30 0
Mo, 30.01. 6:00 0
Mo, 30.01. 5:30 0
Link zu dieser Seite / Seite empfehlen

Das Wetter in ...